Lop Buri, Thailand

12:07 AM ICT on July 29, 2014 (GMT +0700)
Bangkok International (VTBD) Elev 13 ft | 13.92 °N, 100.61 °E | Change Station

Current weather conditions updated 37 minutes ago

Mostly Cloudy
Mostly Cloudy
82 °F
Feels Like 88 °F
N
6
Wind Variable Wind from WSW

Today is forecast to be Warmer than yesterday. Thunderstorms developing in the afternoon.

Today
High -- | Low -- °F
--% Chance of Precip.
Yesterday
High -- | Low -- °F
Precip. -- in
5:59 AM 6:48 PM
Waxing Crescent, 3% visible
Pressure 29.77 in
Visibility 6.2 miles
Clouds Few 2000 ft
Mostly Cloudy 12000 ft
Mostly Cloudy 30000 ft
Heat Index 88 °F
Dew Point 73 °F
Humidity 74%
Rainfall 0.00 in
Snow Depth Not available.
UV 0 out of 12
Pollen Not available.
Air Quality Not available.
Flu Activity Not available.
METAR VTBD 281630Z 24005KT 9999 FEW020 BKN120 BKN300 28/23 Q1008 NOSIG

More Conditions Fewer Conditions

Pressure 29.77 in
Visibility 6.2 miles
Clouds Few 2000 ft
Mostly Cloudy 12000 ft
Mostly Cloudy 30000 ft
Heat Index 88 °F
Dew Point 73 °F
Humidity 74%
Rainfall 0.00 in
Snow Depth Not available.
UV 0 out of 12
Pollen Not available.
Air Quality Not available.
Flu Activity Not available.
METAR VTBD 281630Z 24005KT 9999 FEW020 BKN120 BKN300 28/23 Q1008 NOSIG

More Conditions Fewer Conditions

10-Day Weather Forecast

Almanac

Astronomy

Jul. 29, 2014 Rise Set
Actual Time 5:59 AM ICT 6:48 PM ICT
Civil Twilight 5:36 AM ICT 7:10 PM ICT
Nautical Twilight 5:10 AM ICT 7:37 PM ICT
Astronomical Twilight 4:42 AM ICT 8:05 PM ICT
Moon 7:39 AM ICT (7/29) 8:16 PM ICT (7/29)
Length of Visible Light 13h 34m
Length of Day
12h 48m
Tomorrow will be 0m 34s shorter.
Waxing Crescent, 3% of the Moon is Illuminated
Jul 28
Waxing Crescent
Aug 3
First Quarter
Aug 10
Full
Aug 17
Last Quarter
Aug 25
New

Yesterday's Extremes

Country Highs Country Lows

Community

WunderPhotos

Upload Photos

1,738,416 photos uploaded!

Nearby

Snow Depth

Not available.

Earthquake Activity

City Distance Mag. Time & Date
No recent earthquake activity has been reported nearby.
Minimum magnitude displayed is 2.5.

Coastal Water Temperatures

Place Temperature
No Stations Reporting

Nearby Weather Stations

There are no personal weather stations in this area.